createdAt,value
2022-10-18T00:01:33.153Z,5.57
2022-10-18T00:06:36.152Z,4.30
2022-10-18T00:11:39.865Z,4.78
2022-10-18T00:16:41.649Z,8.20
2022-10-18T00:26:50.236Z,5.57
2022-10-18T00:31:52.046Z,6.82
2022-10-18T00:36:54.998Z,4.93
2022-10-18T00:41:56.776Z,6.70
2022-10-18T00:47:08.306Z,6.85
2022-10-18T00:52:15.271Z,7.32
2022-10-18T00:57:17.407Z,10.57
2022-10-18T01:02:19.380Z,7.65
2022-10-18T01:07:48.644Z,8.63
2022-10-18T01:13:08.546Z,8.30
2022-10-18T01:18:18.131Z,5.63
2022-10-18T01:23:38.945Z,7.72
2022-10-18T01:29:15.279Z,7.43
2022-10-18T01:34:19.663Z,4.50
2022-10-18T01:39:29.604Z,6.00
2022-10-18T01:44:34.940Z,5.80
2022-10-18T01:49:36.682Z,5.20
2022-10-18T01:54:41.569Z,5.68
2022-10-18T02:00:22.146Z,7.40
2022-10-18T02:05:54.268Z,6.35
2022-10-18T02:11:04.197Z,4.60
2022-10-18T02:16:11.484Z,9.15
2022-10-18T02:21:17.513Z,5.93
2022-10-18T02:26:20.496Z,6.00
2022-10-18T02:31:28.189Z,5.53
2022-10-18T02:36:47.455Z,11.20
2022-10-18T02:41:49.439Z,7.38
2022-10-18T02:46:51.704Z,6.45
2022-10-18T02:51:53.551Z,7.60
2022-10-18T02:56:55.284Z,4.82
2022-10-18T03:01:57.066Z,6.13
2022-10-18T03:07:01.117Z,8.48
2022-10-18T03:12:03.319Z,6.90
2022-10-18T03:17:05.147Z,5.90
2022-10-18T03:22:07.182Z,6.95
2022-10-18T03:27:08.919Z,5.90
2022-10-18T03:32:10.657Z,6.80
2022-10-18T03:37:12.407Z,9.68
2022-10-18T03:42:14.145Z,5.00
2022-10-18T03:47:15.893Z,6.68
2022-10-18T03:52:17.643Z,6.22
2022-10-18T03:57:19.381Z,8.52
2022-10-18T04:02:21.180Z,6.63
2022-10-18T04:07:22.909Z,5.20
2022-10-18T04:12:24.660Z,9.00
2022-10-18T04:17:26.387Z,6.88
2022-10-18T04:22:28.178Z,6.60
2022-10-18T04:27:30.766Z,5.63
2022-10-18T04:32:32.799Z,5.40
2022-10-18T04:37:35.806Z,6.07
2022-10-18T04:42:37.550Z,6.20
2022-10-18T04:47:39.354Z,4.68
2022-10-18T04:52:41.130Z,4.78
2022-10-18T04:57:42.926Z,6.45
2022-10-18T05:02:44.888Z,5.50
2022-10-18T05:07:46.769Z,7.15
2022-10-18T05:12:49.284Z,6.78
2022-10-18T05:17:51.192Z,5.07
2022-10-18T05:22:52.933Z,5.68
2022-10-18T05:27:54.675Z,9.65
2022-10-18T05:32:56.426Z,9.23
2022-10-18T05:37:58.237Z,8.20
2022-10-18T05:43:00.011Z,7.75
2022-10-18T05:48:01.773Z,13.85
2022-10-18T05:53:12.187Z,6.60
2022-10-18T05:58:14.382Z,8.73
2022-10-18T06:03:16.101Z,9.45
2022-10-18T06:08:17.804Z,7.65
2022-10-18T06:13:19.545Z,8.95
2022-10-18T06:18:21.284Z,16.50
2022-10-18T06:23:23.019Z,12.23
2022-10-18T06:28:24.820Z,7.38
2022-10-18T06:33:26.981Z,9.45
2022-10-18T06:38:29.695Z,10.00
2022-10-18T06:43:34.844Z,7.47
2022-10-18T06:48:38.767Z,8.88
2022-10-18T06:53:44.528Z,6.50
2022-10-18T06:58:55.172Z,11.32
2022-10-18T07:03:57.184Z,12.82
2022-10-18T07:08:59.245Z,10.02
2022-10-18T07:14:03.253Z,10.15
2022-10-18T07:19:05.041Z,5.90
2022-10-18T07:24:07.101Z,10.52
2022-10-18T07:29:11.093Z,5.57
2022-10-18T07:34:13.850Z,9.27
2022-10-18T07:39:15.618Z,12.68
2022-10-18T07:44:17.434Z,6.78
2022-10-18T07:49:19.157Z,7.85
2022-10-18T07:54:22.328Z,9.25
2022-10-18T08:04:25.852Z,15.50
2022-10-18T08:09:27.786Z,12.32
2022-10-18T08:14:29.604Z,8.25
2022-10-18T08:19:31.411Z,9.90
2022-10-18T08:24:33.231Z,13.02
2022-10-18T08:29:34.980Z,14.18
2022-10-18T08:39:43.431Z,11.02
2022-10-18T08:44:50.636Z,10.68
2022-10-18T08:49:58.024Z,14.98
2022-10-18T08:55:05.123Z,10.38
2022-10-18T09:00:19.433Z,12.65
2022-10-18T09:06:02.729Z,11.30
2022-10-18T09:11:24.513Z,11.40
2022-10-18T09:16:57.878Z,13.43
2022-10-18T09:22:18.280Z,14.00
2022-10-18T09:27:22.446Z,15.38
2022-10-18T09:32:56.867Z,9.45
2022-10-18T09:43:32.226Z,10.53
2022-10-18T09:49:05.999Z,14.32
2022-10-18T09:54:21.747Z,10.87
2022-10-18T09:59:47.404Z,10.02
2022-10-18T10:04:54.175Z,13.63
2022-10-18T10:09:57.906Z,11.98
2022-10-18T10:15:19.183Z,11.10
2022-10-18T10:20:32.822Z,8.35
2022-10-18T10:25:38.036Z,12.80
2022-10-18T10:30:40.039Z,7.20
2022-10-18T10:35:53.145Z,9.07
2022-10-18T10:40:55.866Z,13.73
2022-10-18T10:46:06.394Z,13.52
2022-10-18T10:51:10.631Z,9.68
2022-10-18T10:56:36.878Z,10.18
2022-10-18T11:01:38.771Z,11.57
2022-10-18T11:06:50.077Z,9.10
2022-10-18T11:12:02.155Z,9.15
2022-10-18T11:17:28.635Z,8.35
2022-10-18T11:22:36.201Z,8.05
2022-10-18T11:27:55.034Z,8.90
2022-10-18T11:34:03.471Z,11.23
2022-10-18T11:39:03.283Z,12.85
2022-10-18T11:44:25.520Z,9.65
2022-10-18T11:49:43.666Z,10.10
2022-10-18T11:55:13.893Z,8.63
2022-10-18T12:00:40.411Z,7.57
2022-10-18T12:05:45.532Z,6.55
2022-10-18T12:11:06.730Z,6.20
2022-10-18T12:16:10.446Z,9.73
2022-10-18T12:21:13.051Z,7.88
2022-10-18T12:26:15.928Z,6.35
2022-10-18T12:31:36.842Z,11.52
2022-10-18T12:36:44.808Z,8.45
2022-10-18T12:41:48.559Z,6.43
2022-10-18T12:52:03.131Z,7.63
2022-10-18T12:57:23.415Z,3.80
2022-10-18T13:02:28.203Z,4.65
2022-10-18T13:07:40.798Z,4.15
2022-10-18T13:12:58.022Z,3.78
2022-10-18T13:18:29.775Z,7.65
2022-10-18T13:23:46.548Z,7.75
2022-10-18T13:29:09.997Z,4.60
2022-10-18T13:34:23.933Z,6.38
2022-10-18T13:39:26.075Z,3.72
2022-10-18T13:44:37.862Z,6.38
2022-10-18T13:49:39.662Z,3.55
2022-10-18T13:55:19.122Z,4.10
2022-10-18T14:00:29.924Z,4.20
2022-10-18T14:05:40.179Z,2.30
2022-10-18T14:11:03.627Z,2.88
2022-10-18T14:16:28.099Z,1.50
2022-10-18T14:21:37.287Z,3.80
2022-10-18T14:31:54.382Z,1.60
2022-10-18T14:36:56.189Z,1.80
2022-10-18T14:41:58.440Z,1.40
2022-10-18T14:47:15.229Z,1.70
2022-10-18T14:52:35.695Z,2.83
2022-10-18T14:57:38.047Z,1.35
2022-10-18T15:02:39.953Z,1.42
2022-10-18T15:07:42.232Z,0.65
2022-10-18T15:13:08.144Z,2.40
2022-10-18T15:18:08.080Z,0.60
2022-10-18T15:23:26.417Z,1.73
2022-10-18T15:28:32.183Z,1.58
2022-10-18T15:33:34.754Z,0.80
2022-10-18T15:38:37.388Z,1.98
2022-10-18T15:43:39.228Z,0.88
2022-10-18T15:48:41.877Z,0.30
2022-10-18T15:53:52.162Z,2.78
2022-10-18T15:58:56.949Z,4.13
2022-10-18T16:03:59.658Z,3.08
2022-10-18T16:09:01.410Z,1.00
2022-10-18T16:14:03.194Z,2.10
2022-10-18T16:19:05.022Z,1.13
2022-10-18T16:24:06.832Z,0.88
2022-10-18T16:29:16.211Z,0.82
2022-10-18T16:34:18.466Z,1.13
2022-10-18T16:39:21.753Z,1.73
2022-10-18T16:44:23.504Z,1.90
2022-10-18T16:49:26.096Z,2.42
2022-10-18T16:54:28.040Z,6.63
2022-10-18T16:59:31.262Z,4.07
2022-10-18T17:04:33.071Z,2.40
2022-10-18T17:09:36.848Z,3.88
2022-10-18T17:14:38.595Z,6.07
2022-10-18T17:19:40.380Z,2.20
2022-10-18T17:24:42.131Z,5.45
2022-10-18T17:29:44.075Z,1.63
2022-10-18T17:34:45.836Z,2.65
2022-10-18T17:39:47.729Z,2.00
2022-10-18T17:44:51.936Z,2.53
2022-10-18T17:49:54.848Z,2.17
2022-10-18T17:54:56.612Z,1.60
2022-10-18T17:59:59.596Z,2.85
2022-10-18T18:05:01.885Z,1.67
2022-10-18T18:10:04.171Z,4.95
2022-10-18T18:15:06.488Z,1.85
2022-10-18T18:20:08.559Z,1.52
2022-10-18T18:25:10.428Z,1.58
2022-10-18T18:30:12.376Z,2.17
2022-10-18T18:35:14.839Z,1.20
2022-10-18T18:40:16.794Z,1.30
2022-10-18T18:45:18.557Z,1.60
2022-10-18T18:50:20.310Z,2.15
2022-10-18T18:55:22.483Z,2.20
2022-10-18T19:00:24.359Z,1.52
2022-10-18T19:05:28.066Z,1.70
2022-10-18T19:10:30.101Z,1.80
2022-10-18T19:15:31.867Z,1.50
2022-10-18T19:20:33.622Z,6.32
2022-10-18T19:25:35.373Z,3.97
2022-10-18T19:30:37.115Z,1.98
2022-10-18T19:35:38.858Z,2.45
2022-10-18T19:40:40.608Z,3.50
2022-10-18T19:45:42.694Z,3.53
2022-10-18T19:50:44.500Z,1.85
2022-10-18T19:55:46.447Z,2.90
2022-10-18T20:00:52.915Z,5.43
2022-10-18T20:05:56.520Z,2.42
2022-10-18T20:11:08.085Z,3.42
2022-10-18T20:16:12.114Z,1.35
2022-10-18T20:21:16.450Z,1.30
2022-10-18T20:31:35.498Z,2.20
2022-10-18T20:36:37.773Z,2.53
2022-10-18T20:41:43.230Z,1.60
2022-10-18T20:46:45.828Z,2.85
2022-10-18T20:51:47.572Z,5.30
2022-10-18T20:56:49.335Z,1.83
2022-10-18T21:01:51.167Z,1.63
2022-10-18T21:06:53.147Z,2.30
2022-10-18T21:11:56.095Z,1.80
2022-10-18T21:16:57.843Z,2.63
2022-10-18T21:21:59.583Z,1.67
2022-10-18T21:27:01.332Z,2.05
2022-10-18T21:32:03.177Z,1.27
2022-10-18T21:37:04.933Z,2.42
2022-10-18T21:42:06.659Z,2.72
2022-10-18T21:47:08.662Z,1.70
2022-10-18T21:52:10.384Z,1.98
2022-10-18T21:57:12.114Z,1.75
2022-10-18T22:02:14.347Z,1.90
2022-10-18T22:07:16.195Z,2.08
2022-10-18T22:12:17.932Z,2.28
2022-10-18T22:17:19.698Z,5.93
2022-10-18T22:22:21.513Z,1.75
2022-10-18T22:27:23.510Z,1.90
2022-10-18T22:32:25.335Z,1.98
2022-10-18T22:37:27.062Z,2.70
2022-10-18T22:42:28.831Z,4.35
2022-10-18T22:47:30.849Z,3.38
2022-10-18T22:52:32.915Z,2.40
2022-10-18T22:57:34.960Z,2.70
2022-10-18T23:02:36.819Z,3.25
2022-10-18T23:07:38.706Z,2.25
2022-10-18T23:12:40.465Z,2.20
2022-10-18T23:17:42.202Z,3.88
2022-10-18T23:22:43.925Z,3.08
2022-10-18T23:27:45.734Z,4.40
2022-10-18T23:32:47.456Z,3.20
2022-10-18T23:37:49.212Z,3.03
2022-10-18T23:42:50.984Z,3.10
2022-10-18T23:47:52.912Z,3.55
2022-10-18T23:52:54.674Z,2.05
2022-10-18T23:57:56.539Z,3.67
